createdAt,value
2022-10-20T00:02:52.662Z,99.90
2022-10-20T00:05:56.764Z,99.90
2022-10-20T00:09:03.192Z,99.90
2022-10-20T00:12:08.212Z,99.90
2022-10-20T00:15:12.197Z,99.90
2022-10-20T00:18:15.620Z,99.90
2022-10-20T00:21:21.352Z,99.90
2022-10-20T00:24:24.724Z,99.90
2022-10-20T00:27:29.434Z,99.90
2022-10-20T00:30:32.820Z,99.90
2022-10-20T00:33:37.051Z,99.90
2022-10-20T00:36:41.184Z,99.90
2022-10-20T00:39:44.565Z,99.90
2022-10-20T00:42:50.495Z,99.90
2022-10-20T00:45:57.313Z,99.90
2022-10-20T00:49:03.616Z,99.90
2022-10-20T00:52:07.241Z,99.90
2022-10-20T00:55:13.068Z,99.90
2022-10-20T00:58:18.101Z,99.90
2022-10-20T01:01:21.445Z,99.90
2022-10-20T01:04:25.134Z,99.90
2022-10-20T01:07:28.795Z,99.90
2022-10-20T01:10:40.235Z,99.90
2022-10-20T01:14:00.613Z,99.90
2022-10-20T01:17:08.507Z,99.90
2022-10-20T01:20:45.983Z,99.90
2022-10-20T01:24:01.902Z,99.90
2022-10-20T01:27:46.923Z,99.90
2022-10-20T01:30:58.262Z,99.90
2022-10-20T01:34:29.363Z,99.90
2022-10-20T01:37:52.317Z,99.90
2022-10-20T01:41:02.296Z,99.90
2022-10-20T01:44:09.639Z,99.90
2022-10-20T01:47:15.713Z,99.90
2022-10-20T01:50:29.048Z,99.90
2022-10-20T01:53:35.072Z,99.90
2022-10-20T01:56:58.931Z,99.90
2022-10-20T02:00:08.237Z,99.90
2022-10-20T02:03:44.762Z,99.90
2022-10-20T02:06:53.978Z,99.90
2022-10-20T02:10:04.540Z,99.90
2022-10-20T02:13:10.348Z,99.90
2022-10-20T02:16:19.117Z,99.90
2022-10-20T02:19:27.831Z,99.90
2022-10-20T02:22:31.398Z,99.90
2022-10-20T02:25:35.172Z,99.90
2022-10-20T02:28:41.917Z,99.90
2022-10-20T02:31:46.223Z,99.90
2022-10-20T02:34:50.973Z,99.90
2022-10-20T02:37:54.164Z,99.90
2022-10-20T02:40:57.457Z,99.90
2022-10-20T02:44:01.158Z,99.90
2022-10-20T02:47:04.458Z,99.90
2022-10-20T02:50:10.253Z,99.90
2022-10-20T02:53:13.496Z,99.90
2022-10-20T02:56:17.532Z,99.90
2022-10-20T02:59:21.463Z,99.90
2022-10-20T03:02:24.689Z,99.90
2022-10-20T03:05:29.387Z,99.90
2022-10-20T03:08:32.932Z,99.90
2022-10-20T03:11:36.652Z,99.90
2022-10-20T03:14:40.144Z,99.90
2022-10-20T03:17:43.297Z,99.90
2022-10-20T03:20:47.936Z,99.90
2022-10-20T03:23:52.581Z,99.90
2022-10-20T03:26:55.873Z,99.90
2022-10-20T03:29:59.097Z,99.90
2022-10-20T03:33:02.287Z,99.90
2022-10-20T03:36:07.687Z,99.90
2022-10-20T03:39:10.843Z,99.90
2022-10-20T03:42:14.094Z,99.90
2022-10-20T03:45:18.636Z,99.90
2022-10-20T03:48:22.125Z,99.90
2022-10-20T03:51:26.687Z,99.90
2022-10-20T03:54:29.872Z,99.90
2022-10-20T03:57:33.281Z,99.90
2022-10-20T04:00:36.653Z,99.90
2022-10-20T04:03:39.838Z,99.90
2022-10-20T04:06:44.359Z,99.90
2022-10-20T04:09:47.530Z,99.90
2022-10-20T04:12:50.717Z,99.90
2022-10-20T04:15:53.891Z,99.90
2022-10-20T04:18:57.450Z,99.90
2022-10-20T04:22:01.999Z,99.90
2022-10-20T04:25:06.364Z,99.90
2022-10-20T04:28:09.545Z,99.90
2022-10-20T04:31:12.920Z,99.90
2022-10-20T04:34:16.090Z,99.90
2022-10-20T04:37:20.642Z,99.90
2022-10-20T04:40:23.853Z,99.90
2022-10-20T04:43:27.458Z,99.90
2022-10-20T04:46:30.769Z,99.90
2022-10-20T04:49:34.173Z,99.90
2022-10-20T04:52:38.975Z,99.90
2022-10-20T04:55:42.202Z,99.90
2022-10-20T04:58:49.087Z,99.90
2022-10-20T05:01:52.778Z,99.90
2022-10-20T05:04:56.184Z,99.90
2022-10-20T05:08:01.115Z,99.90
2022-10-20T05:11:04.825Z,99.90
2022-10-20T05:14:10.702Z,99.90
2022-10-20T05:17:14.009Z,99.90
2022-10-20T05:20:17.448Z,99.90
2022-10-20T05:23:22.085Z,99.90
2022-10-20T05:26:26.816Z,99.90
2022-10-20T05:29:30.403Z,99.90
2022-10-20T05:32:33.839Z,99.90
2022-10-20T05:35:37.699Z,99.90
2022-10-20T05:38:42.506Z,99.90
2022-10-20T05:41:45.930Z,99.90
2022-10-20T05:44:49.223Z,99.90
2022-10-20T05:47:52.457Z,99.90
2022-10-20T05:50:55.653Z,99.90
2022-10-20T05:54:01.014Z,99.90
2022-10-20T05:57:04.489Z,99.90
2022-10-20T06:00:09.202Z,99.90
2022-10-20T06:03:17.493Z,99.90
2022-10-20T06:06:24.041Z,99.90
2022-10-20T06:09:28.798Z,99.90
2022-10-20T06:12:32.025Z,99.90
2022-10-20T06:15:35.300Z,99.90
2022-10-20T06:18:39.877Z,99.90
2022-10-20T06:24:52.757Z,99.90
2022-10-20T06:27:56.171Z,99.90
2022-10-20T06:30:59.735Z,99.90
2022-10-20T06:34:06.396Z,99.90
2022-10-20T06:37:10.881Z,99.90
2022-10-20T06:40:15.744Z,99.90
2022-10-20T06:43:19.834Z,99.90
2022-10-20T06:46:23.139Z,99.90
2022-10-20T06:49:26.498Z,99.90
2022-10-20T06:52:29.747Z,99.90
2022-10-20T06:55:34.482Z,99.90
2022-10-20T06:58:39.940Z,99.90
2022-10-20T07:01:43.596Z,99.90
2022-10-20T07:04:47.197Z,99.90
2022-10-20T07:07:54.870Z,99.90
2022-10-20T07:11:05.014Z,99.90
2022-10-20T07:14:11.155Z,99.90
2022-10-20T07:17:14.384Z,99.90
2022-10-20T07:20:17.723Z,99.90
2022-10-20T07:23:24.235Z,99.90
2022-10-20T07:26:30.843Z,99.90
2022-10-20T07:29:34.812Z,99.90
2022-10-20T07:32:38.938Z,99.90
2022-10-20T07:35:42.375Z,99.90
2022-10-20T07:38:46.582Z,99.90
2022-10-20T07:41:51.169Z,99.90
2022-10-20T07:44:54.376Z,99.90
2022-10-20T07:47:57.797Z,99.90
2022-10-20T07:51:28.391Z,99.90
2022-10-20T07:54:32.253Z,99.90
2022-10-20T07:57:37.071Z,99.90
2022-10-20T08:03:48.579Z,99.90
2022-10-20T08:06:51.845Z,99.90
2022-10-20T08:09:55.172Z,99.90
2022-10-20T08:12:59.975Z,99.90
2022-10-20T08:22:43.840Z,99.90
2022-10-20T08:25:47.023Z,99.90
2022-10-20T08:28:53.436Z,99.90
2022-10-20T08:31:56.807Z,99.90
2022-10-20T08:35:00.213Z,99.90
2022-10-20T08:38:05.906Z,99.90
2022-10-20T08:41:18.208Z,99.90
2022-10-20T08:44:27.044Z,99.90
2022-10-20T08:47:34.515Z,99.90
2022-10-20T08:50:38.646Z,99.90
2022-10-20T08:53:41.841Z,99.90
2022-10-20T08:56:45.464Z,99.90
2022-10-20T08:59:53.293Z,99.90
2022-10-20T09:02:58.025Z,99.90
2022-10-20T09:06:09.952Z,99.90
2022-10-20T09:09:17.701Z,99.90
2022-10-20T09:12:23.998Z,99.90
2022-10-20T09:15:31.184Z,99.90
2022-10-20T09:18:35.647Z,99.90
2022-10-20T09:21:41.398Z,99.90
2022-10-20T09:24:46.071Z,99.90
2022-10-20T09:27:49.534Z,99.90
2022-10-20T09:30:54.891Z,99.90
2022-10-20T09:33:58.172Z,99.90
2022-10-20T09:37:06.138Z,99.90
2022-10-20T09:40:16.836Z,99.90
2022-10-20T09:43:20.636Z,99.90
2022-10-20T09:46:28.227Z,99.90
2022-10-20T09:49:36.168Z,99.90
2022-10-20T09:52:47.709Z,99.90
2022-10-20T09:55:52.481Z,99.90
2022-10-20T09:58:57.570Z,99.90
2022-10-20T10:02:05.542Z,99.90
2022-10-20T10:05:19.102Z,99.90
2022-10-20T10:08:24.234Z,99.90
2022-10-20T10:11:33.343Z,99.60
2022-10-20T10:14:37.900Z,94.60
2022-10-20T10:17:43.866Z,95.30
2022-10-20T10:20:47.392Z,93.70
2022-10-20T10:23:56.070Z,57.50
2022-10-20T10:26:59.340Z,28.50
2022-10-20T10:30:29.175Z,10.00
2022-10-20T10:33:34.285Z,21.50
2022-10-20T10:36:38.374Z,13.60
2022-10-20T10:39:41.710Z,1.00
2022-10-20T10:43:04.448Z,1.00
2022-10-20T10:46:09.508Z,1.00
2022-10-20T10:49:34.287Z,1.00
2022-10-20T10:52:47.245Z,1.00
2022-10-20T10:55:58.280Z,1.00
2022-10-20T10:59:07.995Z,1.00
2022-10-20T11:02:45.013Z,1.00
2022-10-20T11:06:19.893Z,1.00
2022-10-20T11:09:30.557Z,1.00
2022-10-20T11:13:03.491Z,1.00
2022-10-20T11:16:21.566Z,1.00
2022-10-20T11:19:48.479Z,1.00
2022-10-20T11:23:15.946Z,1.00
2022-10-20T11:26:28.321Z,1.00
2022-10-20T11:29:38.634Z,1.00
2022-10-20T11:32:45.741Z,1.00
2022-10-20T11:35:55.930Z,1.00
2022-10-20T11:39:00.601Z,1.00
2022-10-20T11:42:21.324Z,1.00
2022-10-20T11:45:33.511Z,1.00
2022-10-20T11:48:41.777Z,1.00
2022-10-20T11:52:07.576Z,1.00
2022-10-20T11:55:52.803Z,1.00
2022-10-20T11:59:17.091Z,1.00
2022-10-20T12:02:48.393Z,1.00
2022-10-20T12:06:09.885Z,1.00
2022-10-20T12:09:43.484Z,1.00
2022-10-20T12:12:54.932Z,1.00
2022-10-20T12:15:58.347Z,1.00
2022-10-20T12:19:17.205Z,1.00
2022-10-20T12:22:41.111Z,1.00
2022-10-20T12:25:44.513Z,1.00
2022-10-20T12:28:49.146Z,1.00
2022-10-20T12:32:26.571Z,1.00
2022-10-20T12:35:45.487Z,1.00
2022-10-20T12:38:51.874Z,1.00
2022-10-20T12:42:01.230Z,1.00
2022-10-20T12:45:08.362Z,1.00
2022-10-20T12:48:21.625Z,1.00
2022-10-20T12:51:35.999Z,1.00
2022-10-20T12:54:46.193Z,1.00
2022-10-20T12:58:12.055Z,1.00
2022-10-20T13:01:16.817Z,1.00
2022-10-20T13:04:54.191Z,1.00
2022-10-20T13:08:04.462Z,1.00
2022-10-20T13:11:43.171Z,1.00
2022-10-20T13:14:57.185Z,1.00
2022-10-20T13:18:04.055Z,1.00
2022-10-20T13:21:24.553Z,1.00
2022-10-20T13:24:33.776Z,1.00
2022-10-20T13:27:39.040Z,1.00
2022-10-20T13:31:03.229Z,1.00
2022-10-20T13:34:16.478Z,1.00
2022-10-20T13:37:43.014Z,1.00
2022-10-20T13:40:56.175Z,1.00
2022-10-20T13:44:11.032Z,1.00
2022-10-20T13:47:35.053Z,1.00
2022-10-20T13:50:43.234Z,1.00
2022-10-20T13:53:50.558Z,1.00
2022-10-20T13:56:55.074Z,1.00
2022-10-20T14:00:00.538Z,1.00
2022-10-20T14:03:05.779Z,1.00
2022-10-20T14:06:33.652Z,1.00
2022-10-20T14:09:39.551Z,1.00
2022-10-20T14:12:45.690Z,1.00
2022-10-20T14:15:56.657Z,4.80
2022-10-20T14:19:24.460Z,1.00
2022-10-20T14:22:49.918Z,24.00
2022-10-20T14:26:10.626Z,37.40
2022-10-20T14:29:26.219Z,46.00
2022-10-20T14:32:43.431Z,62.30
2022-10-20T14:35:58.315Z,84.40
2022-10-20T14:39:09.451Z,91.10
2022-10-20T14:42:27.922Z,74.20
2022-10-20T14:45:37.223Z,81.10
2022-10-20T14:48:52.640Z,77.10
2022-10-20T14:52:05.137Z,91.60
2022-10-20T14:55:44.724Z,93.20
2022-10-20T14:58:59.030Z,89.20
2022-10-20T15:02:09.301Z,96.60
2022-10-20T15:05:24.469Z,95.60
2022-10-20T15:08:29.585Z,99.90
2022-10-20T15:11:34.302Z,99.90
2022-10-20T15:14:37.818Z,99.90
2022-10-20T15:17:44.044Z,99.90
2022-10-20T15:20:49.072Z,99.90
2022-10-20T15:23:52.329Z,99.90
2022-10-20T15:26:57.599Z,99.90
2022-10-20T15:30:01.231Z,99.90
2022-10-20T15:33:04.621Z,99.90
2022-10-20T15:36:13.381Z,99.90
2022-10-20T15:39:16.752Z,99.90
2022-10-20T15:42:21.467Z,99.90
2022-10-20T15:45:26.446Z,99.90
2022-10-20T15:48:29.852Z,99.90
2022-10-20T15:51:36.146Z,99.90
2022-10-20T15:54:39.666Z,99.90
2022-10-20T15:57:44.291Z,99.90
2022-10-20T16:00:48.365Z,99.90
2022-10-20T16:03:52.337Z,99.90
2022-10-20T16:06:59.162Z,99.90
2022-10-20T16:10:05.821Z,99.90
2022-10-20T16:13:11.013Z,99.90
2022-10-20T16:16:17.540Z,99.90
2022-10-20T16:19:20.839Z,99.90
2022-10-20T16:22:24.058Z,99.90
2022-10-20T16:25:27.592Z,99.90
2022-10-20T16:28:32.317Z,99.90
2022-10-20T16:31:37.055Z,99.90
2022-10-20T16:34:40.459Z,99.90
2022-10-20T16:37:47.364Z,99.90
2022-10-20T16:40:58.987Z,99.90
2022-10-20T16:44:03.639Z,99.90
2022-10-20T16:47:07.042Z,99.90
2022-10-20T16:50:10.811Z,99.90
2022-10-20T16:53:23.844Z,99.90
2022-10-20T16:56:28.272Z,99.90
2022-10-20T16:59:33.681Z,99.90
2022-10-20T17:02:38.190Z,99.90
2022-10-20T17:05:41.720Z,99.90
2022-10-20T17:08:45.474Z,99.90
2022-10-20T17:11:48.864Z,99.90
2022-10-20T17:14:53.746Z,99.90
2022-10-20T17:17:57.319Z,99.90
2022-10-20T17:21:01.127Z,99.90
2022-10-20T17:24:05.053Z,99.90
2022-10-20T17:27:08.544Z,99.90
2022-10-20T17:30:14.979Z,99.90
2022-10-20T17:33:18.645Z,99.90
2022-10-20T17:36:26.146Z,99.90
2022-10-20T17:39:29.960Z,99.90
2022-10-20T17:42:34.316Z,99.90
2022-10-20T17:45:39.832Z,99.90
2022-10-20T17:48:43.931Z,99.90
2022-10-20T17:51:47.951Z,99.90
2022-10-20T17:54:51.540Z,99.90
2022-10-20T17:57:56.367Z,99.90
2022-10-20T18:01:11.513Z,99.90
2022-10-20T18:04:16.919Z,99.90
2022-10-20T18:07:20.504Z,99.90
2022-10-20T18:10:24.393Z,99.90
2022-10-20T18:13:28.664Z,99.90
2022-10-20T18:16:37.297Z,99.90
2022-10-20T18:19:41.765Z,99.90
2022-10-20T18:22:45.636Z,99.90
2022-10-20T18:25:49.414Z,99.90
2022-10-20T18:28:54.231Z,99.90
2022-10-20T18:31:59.641Z,99.90
2022-10-20T18:35:03.397Z,99.90
2022-10-20T18:38:07.182Z,99.90
2022-10-20T18:41:12.596Z,99.90
2022-10-20T18:44:17.512Z,99.90
2022-10-20T18:47:22.783Z,99.90
2022-10-20T18:50:26.410Z,99.90
2022-10-20T18:53:32.537Z,99.90
2022-10-20T18:56:36.902Z,99.90
2022-10-20T18:59:40.376Z,99.90
2022-10-20T19:06:00.157Z,99.90
2022-10-20T19:09:06.765Z,99.90
2022-10-20T19:12:10.723Z,99.90
2022-10-20T19:15:14.371Z,99.90
2022-10-20T19:18:19.102Z,99.90
2022-10-20T19:21:24.184Z,99.90
2022-10-20T19:24:27.567Z,99.90
2022-10-20T19:27:31.376Z,99.90
2022-10-20T19:30:36.359Z,99.90
2022-10-20T19:33:41.298Z,99.90
2022-10-20T19:36:46.631Z,99.90
2022-10-20T19:39:50.362Z,99.90
2022-10-20T19:42:53.856Z,99.90
2022-10-20T19:45:57.185Z,99.90
2022-10-20T19:49:02.629Z,99.90
2022-10-20T19:52:06.840Z,99.90
2022-10-20T19:55:10.557Z,99.90
2022-10-20T19:58:14.555Z,99.90
2022-10-20T20:01:18.909Z,99.90
2022-10-20T20:04:24.271Z,99.90
2022-10-20T20:07:30.402Z,99.90
2022-10-20T20:10:36.500Z,99.90
2022-10-20T20:13:40.301Z,99.90
2022-10-20T20:16:45.844Z,99.90
2022-10-20T20:19:51.361Z,99.90
2022-10-20T20:22:54.759Z,99.90
2022-10-20T20:26:02.692Z,99.90
2022-10-20T20:29:06.704Z,99.90
2022-10-20T20:32:10.031Z,99.90
2022-10-20T20:35:15.423Z,99.90
2022-10-20T20:38:18.913Z,99.90
2022-10-20T20:41:24.178Z,99.90
2022-10-20T20:44:27.532Z,99.90
2022-10-20T20:47:32.524Z,99.90
2022-10-20T20:50:37.264Z,99.90
2022-10-20T20:53:41.522Z,99.90
2022-10-20T20:56:45.397Z,99.90
2022-10-20T20:59:50.823Z,99.90
2022-10-20T21:06:03.669Z,99.90
2022-10-20T21:09:07.964Z,99.90
2022-10-20T21:15:15.713Z,99.90
2022-10-20T21:18:19.191Z,99.90
2022-10-20T21:21:25.684Z,99.90
2022-10-20T21:24:29.409Z,99.90
2022-10-20T21:27:32.783Z,99.90
2022-10-20T21:30:36.054Z,99.90
2022-10-20T21:33:40.163Z,99.90
2022-10-20T21:36:44.950Z,99.90
2022-10-20T21:39:48.262Z,99.90
2022-10-20T21:42:51.515Z,99.90
2022-10-20T21:45:55.115Z,99.90
2022-10-20T21:49:01.322Z,99.90
2022-10-20T21:52:06.250Z,99.90
2022-10-20T21:55:09.709Z,99.90
2022-10-20T21:58:12.845Z,99.90
2022-10-20T22:01:19.103Z,99.90
2022-10-20T22:04:24.647Z,99.90
2022-10-20T22:07:30.305Z,99.90
2022-10-20T22:10:36.766Z,99.90
2022-10-20T22:13:40.377Z,99.90
2022-10-20T22:16:44.564Z,99.90
2022-10-20T22:19:49.817Z,99.90
2022-10-20T22:22:54.346Z,99.90
2022-10-20T22:25:57.593Z,99.90
2022-10-20T22:29:02.152Z,99.90
2022-10-20T22:32:05.765Z,99.90
2022-10-20T22:35:09.726Z,99.90
2022-10-20T22:38:14.560Z,99.90
2022-10-20T22:41:17.857Z,99.90
2022-10-20T22:44:21.160Z,99.90
2022-10-20T22:47:24.541Z,99.90
2022-10-20T22:50:28.372Z,99.90
2022-10-20T22:53:33.004Z,99.90
2022-10-20T22:56:36.272Z,99.90
2022-10-20T22:59:39.456Z,99.90
2022-10-20T23:02:42.802Z,99.90
2022-10-20T23:05:46.002Z,99.90
2022-10-20T23:08:52.792Z,99.90
2022-10-20T23:11:56.267Z,99.90
2022-10-20T23:14:59.649Z,99.90
2022-10-20T23:18:03.007Z,99.90
2022-10-20T23:21:07.335Z,99.90
2022-10-20T23:24:11.994Z,99.90
2022-10-20T23:27:15.298Z,99.90
2022-10-20T23:30:18.605Z,99.90
2022-10-20T23:33:22.015Z,99.90
2022-10-20T23:36:25.652Z,99.90
2022-10-20T23:39:30.207Z,99.90
2022-10-20T23:42:33.622Z,99.90
2022-10-20T23:45:37.755Z,99.90
2022-10-20T23:48:41.735Z,99.90
2022-10-20T23:51:44.952Z,99.90
2022-10-20T23:54:50.057Z,99.90
2022-10-20T23:57:53.404Z,99.90
